Ackley, IA (50601)

11:12 AM CDT on April 19, 2015 (GMT -0500)
IADOT | | Change Station
CLOSE
Current Station
Personal Weather Station
Location: Steamboat Rock, IA
Elevation: 1049 ft
Nearby Weather Stations

Elev 1049 ft 42.45 °N, 93.06 °W | Updated 18 minutes ago

Overcast
Overcast
57 °F
Feels Like 57 °F
N
6
Wind Variable Wind from East
Gusts 7.0 mph

Today
High -- | Low -- °F
--% Chance of Precip.
Yesterday
High -- | Low -- °F
Precip. -- in
6:25 AM 7:58 PM
New Moon, 1% visible
Pressure 29.69 in
Visibility 5.0 miles
Clouds Overcast 500 ft
Dew Point 55 °F
Humidity 93%
Rainfall in
Snow Depth Not available.
UV 2 out of 12
Pollen 1.60 out of 12
Air Quality Not available.
Flu Activity Local Activity
METAR KIFA 191555Z AUTO 09004KT 5SM BR OVC005 15/13 A2969 RMK AO2 T01490134

More Conditions Fewer Conditions

Pressure 29.69 in
Visibility 5.0 miles
Clouds Overcast 500 ft
Dew Point 55 °F
Humidity 93%
Rainfall in
Snow Depth Not available.
UV 2 out of 12
Pollen 1.60 out of 12
Air Quality Not available.
Flu Activity Local Activity
METAR KIFA 191555Z AUTO 09004KT 5SM BR OVC005 15/13 A2969 RMK AO2 T01490134

More Conditions Fewer Conditions

10-Day Weather Forecast

Almanac

Astronomy

Apr. 19, 2015 Rise Set
Actual Time
Civil Twilight
Nautical Twilight
Astronomical Twilight
Moon
Length of Visible Light
Length of Day
Tomorrow will be .
, % of the Moon is Illuminated

Today's Extremes

State Highs State Lows

Community

WunderPhotos

Upload Photos

1,814,842 photos uploaded!

WunderBlogs® & News

Nearby

Air Quality

  Air Quality AQ Index Pollutant
Not available.

Snow Depth

Station Depth Elevation

Earthquake Activity

City Distance Mag. Time & Date
Minimum magnitude displayed is 2.5.

Coastal Water Temperatures

Place Temperature

Stations

Nearby Weather Stations

Station Location Temp. Windchill Dew Point Humidity Wind Precip. Elev Updated Type